Time;durP1;ratioP1;P1;durP2;ratioP2;P2;SDS_P1;SDS_P2;PMS_P1;PMS_P2;Temp;Humidity;BMP_temperature;BMP_pressure;BME280_temperature;BME280_humidity;BME280_pressure;Samples;Min_cycle;Max_cycle;Signal;HPM_P1;HPM_P2
2023/05/12 00:02:47;;;;;;;5.70;4.20;;;;;;;11.32;42.24;100686.44;131088;1255;106450;-78
2023/05/12 00:05:53;;;;;;;6.80;3.90;;;;;;;11.28;42.28;100689.19;131156;1251;107525;-79
2023/05/12 00:08:58;;;;;;;7.00;3.90;;;;;;;11.25;42.21;100691.92;130942;1250;107391;-79
2023/05/12 00:12:05;;;;;;;5.80;4.30;;;;;;;11.22;42.48;100689.39;130970;1254;107535;-79
2023/05/12 00:15:11;;;;;;;8.70;4.40;;;;;;;11.17;42.41;100694.98;130978;1255;107531;-80
2023/05/12 00:18:17;;;;;;;7.30;4.10;;;;;;;11.11;43.04;100693.67;131186;1252;107522;-79
2023/05/12 00:21:22;;;;;;;6.10;4.20;;;;;;;11.06;42.83;100693.29;131126;1251;107440;-79
2023/05/12 00:24:29;;;;;;;6.10;4.10;;;;;;;11.02;42.68;100696.34;131068;1251;107505;-79
2023/05/12 00:27:35;;;;;;;6.30;4.10;;;;;;;10.98;43.23;100692.52;131107;1254;107524;-79
2023/05/12 00:30:40;;;;;;;7.10;4.10;;;;;;;10.94;42.78;100695.04;130949;1251;107587;-80
2023/05/12 00:33:45;;;;;;;7.20;4.30;;;;;;;10.92;42.91;100699.05;131111;1256;107548;-79
2023/05/12 00:36:52;;;;;;;5.00;3.90;;;;;;;10.89;43.14;100703.90;131059;1254;106122;-80
2023/05/12 00:39:57;;;;;;;7.40;4.50;;;;;;;10.84;43.35;100699.96;130995;1254;107165;-80
2023/05/12 00:43:03;;;;;;;7.10;4.60;;;;;;;10.78;43.13;100700.98;131262;1253;107520;-79
2023/05/12 00:46:09;;;;;;;5.50;3.90;;;;;;;10.76;43.42;100704.41;131010;1254;108038;-79
2023/05/12 00:49:15;;;;;;;5.30;4.30;;;;;;;10.74;43.40;100702.50;131147;1254;107552;-80
2023/05/12 00:52:21;;;;;;;4.80;4.30;;;;;;;10.71;43.43;100707.56;131114;1251;107414;-80
2023/05/12 00:55:27;;;;;;;6.20;4.10;;;;;;;10.69;43.65;100712.39;131066;1251;105639;-80
2023/05/12 00:58:32;;;;;;;6.00;4.20;;;;;;;10.65;43.72;100710.95;131002;1251;106578;-80
2023/05/12 01:01:38;;;;;;;8.40;4.00;;;;;;;10.62;43.62;100713.17;131114;1251;107208;-79
2023/05/12 01:04:43;;;;;;;6.50;4.50;;;;;;;10.57;43.42;100715.91;131021;1256;106669;-79
2023/05/12 01:07:49;;;;;;;6.30;4.20;;;;;;;10.54;43.69;100718.38;131149;1250;107526;-79
2023/05/12 01:10:55;;;;;;;5.80;4.20;;;;;;;10.52;43.89;100717.50;130949;1253;107364;-81
2023/05/12 01:14:01;;;;;;;5.50;3.70;;;;;;;10.50;43.90;100719.10;130918;1253;107525;-79
2023/05/12 01:17:12;;;;;;;9.80;4.60;;;;;;;10.46;44.24;100721.07;130859;1256;107375;-80
2023/05/12 01:20:21;;;;;;;6.40;4.40;;;;;;;10.44;43.87;100725.52;131074;1251;107420;-80
2023/05/12 01:23:35;;;;;;;6.20;4.20;;;;;;;10.40;44.25;100723.58;130946;1251;107346;-79
2023/05/12 01:26:41;;;;;;;6.60;4.20;;;;;;;10.37;44.28;100725.94;130880;1255;107640;-79
2023/05/12 01:29:48;;;;;;;4.90;3.80;;;;;;;10.36;44.13;100724.50;131022;1254;106635;-79
2023/05/12 01:32:56;;;;;;;6.90;4.10;;;;;;;10.32;44.51;100725.23;130886;1256;107482;-80
2023/05/12 01:36:02;;;;;;;6.40;4.20;;;;;;;10.27;44.50;100725.77;130931;1254;215305;-79
2023/05/12 01:39:07;;;;;;;6.90;4.10;;;;;;;10.24;44.77;100724.95;130963;1250;107326;-81
2023/05/12 01:42:13;;;;;;;5.40;4.30;;;;;;;10.21;44.77;100727.55;131183;1254;105559;-81
2023/05/12 01:45:19;;;;;;;6.80;4.10;;;;;;;10.19;44.71;100736.81;131086;1256;105581;-80
2023/05/12 01:48:25;;;;;;;5.60;4.00;;;;;;;10.17;45.09;100735.02;130902;1251;107421;-80
2023/05/12 01:51:32;;;;;;;6.10;4.20;;;;;;;10.13;45.06;100741.08;130863;1250;107388;-81
2023/05/12 01:54:38;;;;;;;6.60;4.20;;;;;;;10.07;45.38;100739.98;130965;1251;107563;-80
2023/05/12 01:57:45;;;;;;;5.80;4.10;;;;;;;10.04;45.35;100739.59;131039;1251;107494;-80
2023/05/12 02:00:50;;;;;;;6.10;4.10;;;;;;;10.02;45.03;100738.52;130731;1256;107892;-80
2023/05/12 02:03:56;;;;;;;7.40;4.50;;;;;;;10.00;45.12;100744.41;131074;1256;107392;-81
2023/05/12 02:07:02;;;;;;;5.60;4.20;;;;;;;9.98;45.46;100744.42;131008;1256;107393;-79
2023/05/12 02:10:10;;;;;;;6.30;4.30;;;;;;;9.95;45.16;100745.49;130864;1253;107515;-79
2023/05/12 02:13:17;;;;;;;6.10;4.30;;;;;;;9.93;45.39;100746.58;131094;1256;107985;-79
2023/05/12 02:16:23;;;;;;;9.00;4.20;;;;;;;9.92;45.62;100742.64;130872;1256;107833;-79
2023/05/12 02:19:30;;;;;;;6.90;4.50;;;;;;;9.89;45.41;100743.41;130983;1256;107507;-80
2023/05/12 02:22:36;;;;;;;5.90;4.30;;;;;;;9.84;45.59;100740.98;130988;1255;107561;-79
2023/05/12 02:25:41;;;;;;;8.20;4.30;;;;;;;9.79;45.84;100740.17;130967;1253;107255;-79
2023/05/12 02:28:47;;;;;;;5.80;4.50;;;;;;;9.75;45.74;100742.63;131030;1255;107369;-79
2023/05/12 02:31:54;;;;;;;5.20;4.30;;;;;;;9.72;45.97;100741.93;131292;1252;107454;-79
2023/05/12 02:35:00;;;;;;;6.30;4.50;;;;;;;9.69;45.95;100747.17;131151;1253;106410;-79
2023/05/12 02:38:06;;;;;;;6.30;4.40;;;;;;;9.67;46.15;100750.19;130842;1254;107519;-77
2023/05/12 02:41:11;;;;;;;5.00;4.00;;;;;;;9.63;46.16;100751.38;130886;1252;107428;-79
2023/05/12 02:44:19;;;;;;;6.90;4.10;;;;;;;9.61;46.27;100748.91;131206;1256;107564;-77
2023/05/12 02:47:25;;;;;;;7.30;4.20;;;;;;;9.59;46.40;100753.48;131397;1257;106252;-77
2023/05/12 02:50:31;;;;;;;7.10;4.30;;;;;;;9.56;46.35;100757.10;131201;1256;107550;-76
2023/05/12 02:53:36;;;;;;;9.40;4.80;;;;;;;9.54;46.52;100761.59;130961;1254;105989;-74
2023/05/12 02:56:42;;;;;;;6.20;4.40;;;;;;;9.53;46.55;100758.86;130804;1256;107494;-73
2023/05/12 02:59:47;;;;;;;6.70;4.40;;;;;;;9.52;46.62;100762.80;130949;1256;105528;-74
2023/05/12 03:02:53;;;;;;;9.50;4.40;;;;;;;9.50;46.98;100763.02;131107;1253;105636;-74
2023/05/12 03:05:58;;;;;;;5.70;4.30;;;;;;;9.46;46.95;100764.23;130973;1251;107524;-75
2023/05/12 03:09:04;;;;;;;6.90;3.90;;;;;;;9.46;47.03;100761.57;130813;1256;107519;-74
2023/05/12 03:12:10;;;;;;;6.20;4.40;;;;;;;9.48;47.18;100761.98;130907;1256;107373;-74
2023/05/12 03:15:16;;;;;;;6.20;4.50;;;;;;;9.49;47.13;100765.09;131142;1251;107238;-74
2023/05/12 03:18:22;;;;;;;7.40;4.30;;;;;;;9.49;47.21;100759.03;130977;1257;107556;-74
2023/05/12 03:21:28;;;;;;;8.20;4.50;;;;;;;9.50;47.16;100759.83;131060;1250;107427;-74
2023/05/12 03:24:34;;;;;;;5.50;4.50;;;;;;;9.53;47.28;100762.79;130838;1253;107502;-74
2023/05/12 03:27:40;;;;;;;7.60;4.50;;;;;;;9.55;47.29;100761.84;130889;1256;107422;-74
2023/05/12 03:30:45;;;;;;;8.10;4.90;;;;;;;9.58;47.28;100761.93;130997;1256;106464;-74
2023/05/12 03:33:51;;;;;;;7.00;4.50;;;;;;;9.60;47.40;100764.43;131000;1250;107514;-74
2023/05/12 03:36:57;;;;;;;6.90;4.60;;;;;;;9.62;47.66;100766.41;130960;1255;107419;-75
2023/05/12 03:40:03;;;;;;;5.40;4.20;;;;;;;9.67;47.35;100768.61;130956;1256;107399;-74
2023/05/12 03:43:09;;;;;;;9.10;5.00;;;;;;;9.78;47.68;100766.58;131091;1256;108018;-74
2023/05/12 03:46:14;;;;;;;5.70;4.40;;;;;;;9.96;47.51;100773.51;131239;1257;106550;-74
2023/05/12 03:49:20;;;;;;;5.70;4.30;;;;;;;10.14;48.00;100771.89;131285;1270;107267;-73
2023/05/12 03:52:26;;;;;;;15.90;10.20;;;;;;;10.33;47.60;100770.92;131028;1256;107533;-76
2023/05/12 03:55:31;;;;;;;14.00;9.80;;;;;;;10.52;47.48;100772.95;131395;1256;107637;-74
2023/05/12 03:58:37;;;;;;;17.40;10.80;;;;;;;10.73;47.71;100773.59;131220;1254;107511;-74
2023/05/12 04:01:43;;;;;;;18.40;11.00;;;;;;;10.93;47.71;100777.45;131306;1260;107406;-74
2023/05/12 04:04:49;;;;;;;12.80;7.20;;;;;;;11.15;47.55;100780.55;131274;1255;106079;-74
2023/05/12 04:07:54;;;;;;;10.90;6.20;;;;;;;11.38;47.40;100772.83;131027;1253;108564;-74
2023/05/12 04:11:02;;;;;;;13.10;6.30;;;;;;;11.55;47.25;100774.25;131066;1256;107553;-74
2023/05/12 04:14:07;;;;;;;9.70;5.40;;;;;;;11.75;47.42;100774.98;131252;1256;107546;-74
2023/05/12 04:17:17;;;;;;;7.50;4.90;;;;;;;11.96;47.45;100778.70;131209;1255;107736;-73
2023/05/12 04:20:23;;;;;;;6.00;4.40;;;;;;;12.15;47.18;100779.34;131066;1253;107254;-74
2023/05/12 04:23:29;;;;;;;10.40;5.40;;;;;;;12.34;47.08;100779.09;131170;1251;107574;-73
2023/05/12 04:26:35;;;;;;;9.50;5.60;;;;;;;12.53;46.84;100781.17;131041;1256;107450;-74
2023/05/12 04:29:40;;;;;;;9.30;5.00;;;;;;;12.73;46.85;100783.23;131201;1255;107455;-74
2023/05/12 04:32:47;;;;;;;10.00;5.40;;;;;;;12.89;46.86;100782.73;131133;1251;108339;-75
2023/05/12 04:35:57;;;;;;;8.50;5.40;;;;;;;13.03;46.50;100784.23;130969;1256;107520;-74
2023/05/12 04:39:03;;;;;;;9.80;5.70;;;;;;;13.16;46.60;100783.56;131162;1256;107563;-75
2023/05/12 04:42:09;;;;;;;10.30;5.80;;;;;;;13.31;46.53;100786.73;131041;1251;107478;-75
2023/05/12 04:45:15;;;;;;;7.70;5.10;;;;;;;13.45;46.39;100787.39;130948;1256;107604;-73
2023/05/12 04:48:21;;;;;;;9.40;4.70;;;;;;;13.61;46.36;100787.33;131165;1256;107388;-74
2023/05/12 04:51:27;;;;;;;7.40;4.90;;;;;;;13.76;46.20;100790.44;131025;1255;106473;-75
2023/05/12 04:54:33;;;;;;;8.00;5.50;;;;;;;13.89;46.20;100792.16;130784;1257;107247;-75
2023/05/12 04:57:40;;;;;;;6.20;3.60;;;;;;;13.95;46.06;100796.12;130968;1256;107565;-74
2023/05/12 05:00:46;;;;;;;7.90;4.40;;;;;;;14.05;45.95;100793.06;130869;1258;107515;-74
2023/05/12 05:03:51;;;;;;;5.80;4.10;;;;;;;14.16;45.87;100794.35;130982;1253;107578;-74
2023/05/12 05:06:58;;;;;;;9.40;4.60;;;;;;;14.22;45.65;100791.88;131037;1253;107239;-74
2023/05/12 05:10:04;;;;;;;8.20;4.30;;;;;;;14.29;45.66;100796.15;131008;1253;107516;-74
2023/05/12 05:13:10;;;;;;;5.40;3.90;;;;;;;14.42;45.53;100797.42;130890;1255;107368;-74
2023/05/12 05:16:16;;;;;;;7.20;4.30;;;;;;;14.53;45.62;100799.80;131047;1255;107484;-74
2023/05/12 05:19:21;;;;;;;6.60;4.00;;;;;;;14.65;45.26;100800.69;131043;1256;107629;-74
2023/05/12 05:22:27;;;;;;;5.90;3.70;;;;;;;14.73;45.49;100800.58;130964;1256;107428;-74
2023/05/12 05:25:33;;;;;;;6.20;3.50;;;;;;;14.79;45.34;100803.52;130991;1255;107443;-74
2023/05/12 05:28:38;;;;;;;6.20;4.20;;;;;;;14.85;45.13;100806.47;130943;1254;107445;-74
2023/05/12 05:31:45;;;;;;;6.80;3.90;;;;;;;14.88;45.12;100806.56;130969;1256;107484;-74
2023/05/12 05:34:50;;;;;;;5.00;3.60;;;;;;;14.91;44.87;100804.66;130925;1256;107382;-74
2023/05/12 05:37:56;;;;;;;6.90;4.10;;;;;;;14.96;45.15;100805.27;130930;1257;107613;-75
2023/05/12 05:41:04;;;;;;;7.20;4.50;;;;;;;15.02;45.15;100805.70;130919;1253;107353;-74
2023/05/12 05:44:09;;;;;;;6.60;3.80;;;;;;;15.08;45.08;100808.75;130745;1255;108098;-74
2023/05/12 05:47:15;;;;;;;6.40;3.60;;;;;;;15.10;44.71;100808.38;130926;1255;107440;-74
2023/05/12 05:50:21;;;;;;;4.70;3.60;;;;;;;15.11;44.67;100812.41;130967;1255;107350;-74
2023/05/12 05:53:27;;;;;;;7.40;3.40;;;;;;;15.10;44.56;100813.52;130881;1256;108592;-74
2023/05/12 05:56:34;;;;;;;7.80;4.00;;;;;;;15.11;44.53;100816.45;130988;1253;107349;-74
2023/05/12 05:59:40;;;;;;;7.40;3.90;;;;;;;15.11;44.61;100819.33;130963;1253;106410;-75
2023/05/12 06:02:46;;;;;;;5.30;3.50;;;;;;;15.11;44.38;100820.74;131091;1256;107422;-74
2023/05/12 06:05:56;;;;;;;6.90;4.00;;;;;;;15.10;44.40;100822.47;130835;1267;105780;-74
2023/05/12 06:09:02;;;;;;;4.10;3.50;;;;;;;15.10;44.40;100824.07;130885;1256;107368;-73
2023/05/12 06:12:08;;;;;;;7.00;3.40;;;;;;;15.11;44.44;100825.77;130931;1255;107621;-74
2023/05/12 06:15:14;;;;;;;6.20;3.50;;;;;;;15.10;44.27;100823.89;130852;1256;107519;-74
2023/05/12 06:18:21;;;;;;;4.80;3.70;;;;;;;15.10;44.28;100832.91;131077;1256;106553;-73
2023/05/12 06:21:27;;;;;;;3.80;3.30;;;;;;;15.10;44.61;100831.16;131192;1254;107469;-74
2023/05/12 06:24:32;;;;;;;4.00;3.20;;;;;;;15.15;44.51;100827.90;131033;1256;107536;-74
2023/05/12 06:27:38;;;;;;;5.50;3.70;;;;;;;15.20;44.43;100833.46;130938;1258;107510;-74
2023/05/12 06:30:44;;;;;;;5.50;3.40;;;;;;;15.23;44.65;100828.58;131011;1257;107432;-74
2023/05/12 06:33:50;;;;;;;5.10;3.40;;;;;;;15.29;44.69;100827.38;130958;1256;107516;-74
2023/05/12 06:36:55;;;;;;;6.00;3.30;;;;;;;15.37;44.52;100831.27;130985;1255;107579;-74
2023/05/12 06:40:02;;;;;;;5.50;3.40;;;;;;;15.40;44.15;100826.56;131058;1256;107354;-74
2023/05/12 06:43:07;;;;;;;7.10;3.60;;;;;;;15.41;44.11;100829.30;130937;1253;107465;-74
2023/05/12 06:46:14;;;;;;;4.10;3.00;;;;;;;15.45;44.46;100831.90;130949;1254;107437;-73
2023/05/12 06:49:21;;;;;;;4.20;2.80;;;;;;;15.54;44.17;100832.59;130970;1253;107446;-74
2023/05/12 06:52:27;;;;;;;9.30;3.20;;;;;;;15.59;44.22;100832.88;130965;1253;107257;-72
2023/05/12 06:55:33;;;;;;;6.60;3.30;;;;;;;15.65;44.27;100831.95;130951;1257;106699;-72
2023/05/12 06:58:38;;;;;;;7.80;3.10;;;;;;;15.72;43.95;100826.80;130879;1266;108114;-71
2023/05/12 07:01:44;;;;;;;5.90;2.90;;;;;;;15.79;43.96;100828.04;130950;1250;107381;-71
2023/05/12 07:04:49;;;;;;;4.00;3.10;;;;;;;15.84;43.59;100830.45;131063;1251;107528;-71
2023/05/12 07:07:55;;;;;;;4.60;3.10;;;;;;;15.90;43.14;100828.84;131090;1255;107587;-72
2023/05/12 07:11:02;;;;;;;7.70;3.30;;;;;;;15.94;42.70;100835.80;131116;1256;108007;-71
2023/05/12 07:14:07;;;;;;;5.10;2.80;;;;;;;15.96;43.03;100836.59;130892;1256;107499;-70
2023/05/12 07:17:13;;;;;;;5.90;2.70;;;;;;;16.03;42.89;100835.62;131042;1253;108559;-70
2023/05/12 07:20:19;;;;;;;7.50;3.20;;;;;;;16.09;42.60;100832.48;131200;1256;107506;-71
2023/05/12 07:23:25;;;;;;;5.20;2.90;;;;;;;16.16;42.65;100825.65;131107;1251;108184;-70
2023/05/12 07:26:30;;;;;;;9.70;3.30;;;;;;;16.23;42.69;100828.87;131053;1267;108119;-71
2023/05/12 07:29:36;;;;;;;5.50;3.20;;;;;;;16.33;42.37;100834.64;131055;1264;107530;-70
2023/05/12 07:32:41;;;;;;;4.00;2.60;;;;;;;16.37;42.08;100827.31;131024;1253;107626;-71
2023/05/12 07:35:47;;;;;;;5.40;3.00;;;;;;;16.42;42.06;100834.42;131144;1256;107519;-71
2023/05/12 07:38:53;;;;;;;8.10;3.10;;;;;;;16.48;42.15;100831.42;131082;1255;105522;-71
2023/05/12 07:41:58;;;;;;;5.10;2.90;;;;;;;16.57;42.13;100825.60;130990;1256;107567;-71
2023/05/12 07:45:04;;;;;;;6.20;2.90;;;;;;;16.64;41.51;100830.58;130949;1254;107506;-71
2023/05/12 07:48:10;;;;;;;3.90;2.50;;;;;;;16.69;41.37;100826.14;131077;1256;107983;-71
2023/05/12 07:51:16;;;;;;;5.80;2.90;;;;;;;16.74;41.18;100831.86;131143;1256;107512;-71
2023/05/12 07:54:22;;;;;;;6.30;2.90;;;;;;;16.77;40.51;100833.24;131172;1250;108176;-72
2023/05/12 07:57:27;;;;;;;3.40;2.80;;;;;;;16.80;40.69;100837.18;130976;1264;107512;-71
2023/05/12 08:00:33;;;;;;;7.20;3.30;;;;;;;16.87;41.18;100827.99;131180;1261;107680;-72
2023/05/12 08:03:38;;;;;;;4.70;2.50;;;;;;;16.95;40.01;100836.73;131075;1256;107531;-72
2023/05/12 08:06:44;;;;;;;6.30;2.60;;;;;;;16.98;40.17;100827.67;131214;1256;107510;-71
2023/05/12 08:09:49;;;;;;;4.50;2.60;;;;;;;17.01;39.57;100839.11;131346;1254;107519;-71
2023/05/12 08:12:55;;;;;;;7.20;3.20;;;;;;;17.06;39.73;100834.74;131186;1255;107375;-71
2023/05/12 08:16:00;;;;;;;4.00;2.60;;;;;;;17.14;39.04;100826.13;131036;1256;107494;-71
2023/05/12 08:19:06;;;;;;;4.40;2.60;;;;;;;17.21;39.34;100824.00;131241;1256;107555;-72
2023/05/12 08:22:11;;;;;;;8.30;2.50;;;;;;;17.27;39.01;100823.64;131228;1257;107504;-71
2023/05/12 08:25:17;;;;;;;5.30;2.70;;;;;;;17.33;38.94;100825.50;131251;1256;107498;-72
2023/05/12 08:28:22;;;;;;;9.10;3.00;;;;;;;17.37;38.76;100825.46;131187;1256;108737;-71
2023/05/12 08:31:28;;;;;;;7.60;2.70;;;;;;;17.38;38.47;100831.27;131131;1254;107380;-74
2023/05/12 08:34:34;;;;;;;3.80;2.70;;;;;;;17.39;38.20;100827.98;131115;1254;105681;-72
2023/05/12 08:37:39;;;;;;;6.90;2.90;;;;;;;17.43;38.42;100821.70;130993;1256;107496;-71
2023/05/12 08:40:54;;;;;;;3.90;2.60;;;;;;;17.48;38.25;100821.34;131000;1251;107369;-72
2023/05/12 08:44:01;;;;;;;4.00;2.70;;;;;;;17.52;38.31;100817.01;131087;1261;107220;-72
2023/05/12 08:47:08;;;;;;;3.70;2.60;;;;;;;17.59;38.13;100819.64;131231;1266;107126;-71
2023/05/12 08:50:17;;;;;;;4.70;2.60;;;;;;;17.66;38.20;100814.42;131260;1264;107498;-71
2023/05/12 08:53:23;;;;;;;5.30;2.70;;;;;;;17.74;37.74;100814.61;131195;1256;106695;-71
2023/05/12 08:56:30;;;;;;;5.80;2.90;;;;;;;17.79;37.50;100812.40;131010;1256;107368;-71
2023/05/12 08:59:39;;;;;;;7.90;3.20;;;;;;;17.82;36.97;100810.01;131004;1255;107520;-71
2023/05/12 09:02:46;;;;;;;4.50;2.30;;;;;;;17.85;37.02;100817.39;131097;1256;107513;-71
2023/05/12 09:05:52;;;;;;;3.80;2.50;;;;;;;17.90;36.57;100822.02;131117;1255;106729;-72
2023/05/12 09:08:58;;;;;;;3.50;2.50;;;;;;;17.95;36.98;100818.59;131162;1254;107543;-71
2023/05/12 09:12:07;;;;;;;4.90;2.60;;;;;;;18.03;37.38;100820.80;131133;1252;107394;-71
2023/05/12 09:15:19;;;;;;;4.10;2.60;;;;;;;18.13;36.60;100822.42;131082;1256;108136;-71
2023/05/12 09:18:25;;;;;;;5.10;2.80;;;;;;;18.18;36.91;100826.29;131037;1258;107538;-71
2023/05/12 09:21:31;;;;;;;3.60;2.50;;;;;;;18.22;36.53;100818.60;131062;1256;107901;-71
2023/05/12 09:24:38;;;;;;;4.10;2.50;;;;;;;18.28;36.47;100819.02;130907;1256;107433;-70
2023/05/12 09:27:44;;;;;;;3.80;2.30;;;;;;;18.33;37.03;100816.18;131033;1251;106352;-71
2023/05/12 09:30:49;;;;;;;5.50;2.60;;;;;;;18.37;36.06;100811.67;131018;1254;108152;-70
2023/05/12 09:33:55;;;;;;;5.60;2.60;;;;;;;18.41;36.38;100802.61;131151;1255;110385;-70
2023/05/12 09:37:04;;;;;;;5.80;3.20;;;;;;;18.47;36.02;100811.23;131082;1270;107285;-71
2023/05/12 09:40:12;;;;;;;5.90;2.80;;;;;;;18.43;36.21;100802.88;131204;1264;107544;-70
2023/05/12 09:43:18;;;;;;;3.60;2.50;;;;;;;18.44;36.02;100804.39;131006;1257;107409;-70
2023/05/12 09:46:24;;;;;;;5.10;2.90;;;;;;;18.50;35.77;100806.61;131062;1257;108106;-70
2023/05/12 09:49:30;;;;;;;4.20;2.50;;;;;;;18.57;35.88;100809.59;131205;1264;107501;-71
2023/05/12 09:52:39;;;;;;;4.80;2.60;;;;;;;18.67;35.71;100808.02;130906;1264;107694;-70
2023/05/12 09:55:46;;;;;;;3.70;2.60;;;;;;;18.80;35.16;100809.80;130985;1256;107531;-71
2023/05/12 09:58:53;;;;;;;3.70;2.40;;;;;;;18.93;35.63;100809.06;131266;1255;107288;-71
2023/05/12 10:02:01;;;;;;;2.90;2.50;;;;;;;19.03;35.45;100809.30;131220;1264;107430;-72
2023/05/12 10:05:12;;;;;;;4.10;2.80;;;;;;;19.06;34.52;100816.32;131133;1255;107383;-72
2023/05/12 10:08:24;;;;;;;3.90;2.40;;;;;;;19.04;34.72;100812.81;131197;1257;107448;-72
2023/05/12 10:11:29;;;;;;;;;;;;;;;19.07;34.85;100804.67;131226;1256;107492;-72
2023/05/12 10:14:35;;;;;;;7.30;2.80;;;;;;;19.10;34.68;100801.42;131273;1257;107303;-72
2023/05/12 10:17:42;;;;;;;3.10;2.60;;;;;;;19.12;34.70;100805.29;131149;1257;107650;-72
2023/05/12 10:20:48;;;;;;;4.70;2.70;;;;;;;19.18;34.41;100806.52;131188;1256;107518;-72
2023/05/12 10:23:56;;;;;;;5.70;2.70;;;;;;;19.20;34.06;100794.83;131220;1254;107578;-72
2023/05/12 10:27:05;;;;;;;4.20;2.50;;;;;;;19.19;34.27;100796.40;131176;1257;106587;-72
2023/05/12 10:30:12;;;;;;;5.90;2.70;;;;;;;19.29;34.62;100796.65;131236;1268;107227;-72
2023/05/12 10:33:18;;;;;;;2.80;2.30;;;;;;;19.29;33.55;100799.67;131347;1257;107377;-72
2023/05/12 10:36:23;;;;;;;5.30;2.70;;;;;;;19.23;33.75;100797.69;131118;1251;107509;-71
2023/05/12 10:39:32;;;;;;;4.50;2.50;;;;;;;19.20;33.22;100805.98;131411;1254;107289;-69
2023/05/12 10:42:42;;;;;;;6.30;2.70;;;;;;;19.17;33.09;100804.27;131147;1264;107637;-73
2023/05/12 10:46:05;;;;;;;3.10;2.30;;;;;;;19.19;33.31;100802.90;131066;1256;107919;-72
2023/05/12 10:49:14;;;;;;;5.80;2.50;;;;;;;19.25;33.01;100806.28;131069;1251;107470;-73
2023/05/12 10:52:22;;;;;;;4.30;2.40;;;;;;;19.33;32.77;100802.55;131054;1264;107203;-73
2023/05/12 10:55:36;;;;;;;4.50;2.60;;;;;;;19.42;33.54;100797.86;131038;1251;107245;-73
2023/05/12 10:59:08;;;;;;;3.30;2.70;;;;;;;19.50;33.38;100792.63;131208;1264;107572;-73
2023/05/12 11:02:17;;;;;;;7.00;2.60;;;;;;;19.56;33.36;100795.45;131009;1257;107455;-73
2023/05/12 11:05:33;;;;;;;4.30;2.70;;;;;;;19.57;33.20;100794.55;130828;1257;107555;-70
2023/05/12 11:08:40;;;;;;;4.40;2.50;;;;;;;19.56;32.54;100796.02;131054;1252;107809;-71
2023/05/12 11:11:46;;;;;;;3.90;2.60;;;;;;;19.51;32.95;100794.54;131252;1255;107494;-70
2023/05/12 11:14:52;;;;;;;4.90;2.50;;;;;;;19.53;33.38;100789.48;131000;1263;108703;-70
2023/05/12 11:17:58;;;;;;;4.00;2.60;;;;;;;19.53;32.96;100786.23;131061;1251;107724;-71
2023/05/12 11:21:11;;;;;;;6.10;2.30;;;;;;;19.58;33.13;100794.23;131153;1251;107282;-70
2023/05/12 11:24:17;;;;;;;5.80;2.50;;;;;;;19.60;32.49;100803.35;130986;1257;107679;-70
2023/05/12 11:27:23;;;;;;;5.90;2.60;;;;;;;19.58;32.04;100803.41;130907;1257;107993;-71
2023/05/12 11:30:28;;;;;;;3.40;2.50;;;;;;;19.53;32.26;100798.42;131054;1257;107502;-70
2023/05/12 11:33:34;;;;;;;3.00;2.50;;;;;;;19.54;32.68;100800.39;131112;1255;106519;-71
2023/05/12 11:36:41;;;;;;;5.80;2.60;;;;;;;19.58;32.24;100796.04;131165;1251;107319;-70
2023/05/12 11:39:46;;;;;;;6.00;2.60;;;;;;;19.59;31.90;100792.19;131268;1254;107347;-71
2023/05/12 11:42:55;;;;;;;4.70;2.60;;;;;;;19.57;31.88;100800.84;131196;1264;108694;-71
2023/05/12 11:46:00;;;;;;;2.50;2.10;;;;;;;19.58;32.04;100797.30;130836;1257;107515;-71
2023/05/12 11:49:12;;;;;;;3.90;2.50;;;;;;;19.61;31.91;100799.48;130844;1261;107961;-71
2023/05/12 11:52:19;;;;;;;3.00;2.60;;;;;;;19.69;32.27;100796.33;130976;1257;106761;-71
2023/05/12 11:55:26;;;;;;;4.80;2.40;;;;;;;19.71;31.48;100803.09;131053;1251;107443;-74
2023/05/12 11:58:31;;;;;;;3.00;2.30;;;;;;;19.70;31.37;100801.95;131062;1256;108106;-71
2023/05/12 12:01:46;;;;;;;5.40;2.60;;;;;;;19.71;31.39;100808.04;130966;1256;107364;-71
2023/05/12 12:04:52;;;;;;;4.60;2.70;;;;;;;19.70;31.43;100799.08;131027;1251;107495;-71
2023/05/12 12:08:06;;;;;;;5.40;2.80;;;;;;;19.71;31.65;100791.14;130953;1254;107518;-71
2023/05/12 12:11:12;;;;;;;6.60;2.40;;;;;;;19.74;31.02;100800.00;130988;1256;107589;-71
2023/05/12 12:14:17;;;;;;;3.10;2.50;;;;;;;19.76;31.30;100794.59;130931;1259;107221;-71
2023/05/12 12:17:29;;;;;;;2.60;2.40;;;;;;;19.78;31.17;100800.52;131099;1251;107667;-71
2023/05/12 12:20:33;;;;;;;;;;;;;;;19.78;30.51;100798.52;131051;1254;107526;-71
2023/05/12 12:23:38;;;;;;;4.60;2.60;;;;;;;19.74;30.13;100789.96;131103;1251;107504;-71
2023/05/12 12:26:44;;;;;;;4.30;2.30;;;;;;;19.71;30.30;100795.02;131094;1255;107509;-71
2023/05/12 12:29:50;;;;;;;2.90;2.30;;;;;;;19.68;30.38;100791.57;130960;1255;107553;-70
2023/05/12 12:32:55;;;;;;;4.30;2.30;;;;;;;19.74;30.81;100792.65;130908;1258;107535;-71
2023/05/12 12:36:01;;;;;;;5.30;2.70;;;;;;;19.78;30.58;100793.86;130995;1257;106733;-70
2023/05/12 12:39:07;;;;;;;3.60;2.20;;;;;;;19.81;30.37;100788.44;130994;1256;107674;-71
2023/05/12 12:42:12;;;;;;;4.70;2.30;;;;;;;19.83;29.81;100796.84;131005;1254;107533;-71
2023/05/12 12:45:18;;;;;;;4.80;2.20;;;;;;;19.82;29.91;100791.05;131025;1254;107314;-72
2023/05/12 12:48:25;;;;;;;5.20;2.40;;;;;;;19.81;29.79;100792.11;131032;1267;107303;-71
2023/05/12 12:51:31;;;;;;;4.80;2.50;;;;;;;19.75;29.74;100789.42;131030;1264;107344;-71
2023/05/12 12:54:37;;;;;;;3.30;2.10;;;;;;;19.73;29.86;100784.66;130959;1256;106696;-71
2023/05/12 12:57:42;;;;;;;3.10;2.10;;;;;;;19.76;30.14;100782.76;131018;1251;107385;-71
2023/05/12 13:00:48;;;;;;;5.60;2.50;;;;;;;19.82;29.77;100782.21;131584;1254;107637;-71
2023/05/12 13:03:54;;;;;;;3.70;2.60;;;;;;;19.86;29.65;100792.15;131065;1257;107611;-72
2023/05/12 13:06:59;;;;;;;5.20;2.70;;;;;;;19.83;28.96;100785.50;131232;1254;107509;-71
2023/05/12 13:10:05;;;;;;;5.70;2.80;;;;;;;19.78;29.30;100775.11;131298;1253;107565;-72
2023/05/12 13:13:11;;;;;;;3.90;2.40;;;;;;;19.81;29.43;100777.51;131167;1251;108026;-72
2023/05/12 13:16:17;;;;;;;3.90;2.50;;;;;;;19.83;29.21;100775.27;131192;1251;107679;-72
2023/05/12 13:19:23;;;;;;;6.10;2.40;;;;;;;19.82;29.03;100773.38;131148;1251;107394;-72
2023/05/12 13:22:29;;;;;;;2.90;2.40;;;;;;;19.80;28.85;100770.54;131101;1253;107532;-73
2023/05/12 13:25:35;;;;;;;4.10;2.50;;;;;;;19.79;29.02;100776.13;131496;1250;107484;-72
2023/05/12 13:28:41;;;;;;;3.20;2.30;;;;;;;19.79;28.51;100773.41;131158;1251;107520;-72
2023/05/12 13:31:46;;;;;;;4.80;2.10;;;;;;;19.76;28.58;100766.93;131255;1257;107234;-71
2023/05/12 13:34:52;;;;;;;3.40;2.20;;;;;;;19.74;28.95;100762.27;131344;1254;107581;-71
2023/05/12 13:37:57;;;;;;;6.90;2.20;;;;;;;19.76;28.54;100761.30;131263;1265;107545;-71
2023/05/12 13:41:03;;;;;;;3.50;2.30;;;;;;;19.76;28.36;100758.60;131363;1254;107605;-71
2023/05/12 13:44:09;;;;;;;8.00;2.20;;;;;;;19.77;28.23;100750.40;131186;1249;106689;-71
2023/05/12 13:47:14;;;;;;;2.50;2.30;;;;;;;19.78;28.30;100750.81;131061;1254;107401;-71
2023/05/12 13:50:20;;;;;;;5.50;2.30;;;;;;;19.79;28.28;100754.79;131190;1254;107509;-69
2023/05/12 13:53:25;;;;;;;4.10;2.10;;;;;;;19.80;28.25;100754.32;130996;1257;108118;-72
2023/05/12 13:56:31;;;;;;;3.10;2.20;;;;;;;19.82;28.47;100758.41;131264;1254;107510;-71
2023/05/12 13:59:36;;;;;;;3.50;2.20;;;;;;;19.82;27.94;100757.64;131308;1254;107517;-71
2023/05/12 14:02:42;;;;;;;3.00;2.20;;;;;;;19.82;27.86;100752.95;131107;1255;107487;-70
2023/05/12 14:05:48;;;;;;;5.10;2.20;;;;;;;19.81;28.00;100747.86;131113;1253;107664;-70
2023/05/12 14:08:53;;;;;;;3.50;2.50;;;;;;;19.82;27.82;100753.88;131056;1251;107518;-70